Time;durP1;ratioP1;P1;durP2;ratioP2;P2;SDS_P1;SDS_P2;PMS_P1;PMS_P2;Temp;Humidity;BMP_temperature;BMP_pressure;BME280_temperature;BME280_humidity;BME280_pressure;Samples;Min_cycle;Max_cycle;Signal;HPM_P1;HPM_P2
2021/11/27 00:00:24;;;;;;;9.10;4.73;;;;;;;-145.69;100.00;70954.69;5116778;28;20201;-76
2021/11/27 00:02:52;;;;;;;7.77;3.40;;;;;;;-145.69;100.00;70968.63;5116612;28;20205;-77
2021/11/27 00:05:20;;;;;;;6.00;3.10;;;;;;;-145.69;100.00;70948.72;5116411;28;20236;-76
2021/11/27 00:07:47;;;;;;;6.10;3.33;;;;;;;-145.69;99.27;70908.94;5116253;28;20648;-76
2021/11/27 00:10:16;;;;;;;5.30;3.20;;;;;;;-145.69;98.21;70889.03;5116178;28;20193;-76
2021/11/27 00:12:44;;;;;;;6.00;3.20;;;;;;;-145.69;97.92;70889.03;5116019;28;20660;-76
2021/11/27 00:15:18;;;;;;;7.50;3.43;;;;;;;-145.69;97.58;70883.06;5116306;28;20283;-76
2021/11/27 00:17:45;;;;;;;5.67;2.90;;;;;;;-145.69;96.14;70853.22;5116280;28;20204;-76
2021/11/27 00:20:22;;;;;;;7.37;3.13;;;;;;;-145.69;95.90;70855.22;5116062;28;20252;-76
2021/11/27 00:22:49;;;;;;;5.47;3.07;;;;;;;-145.69;95.16;70853.22;5116150;28;20197;-76
2021/11/27 00:25:17;;;;;;;4.43;2.80;;;;;;;-145.69;95.46;70831.34;5116196;28;20230;-76
2021/11/27 00:27:45;;;;;;;5.63;2.93;;;;;;;-145.69;96.57;70837.31;5116187;28;20201;-77
2021/11/27 00:30:15;;;;;;;4.33;2.60;;;;;;;-145.69;93.43;70813.44;5115588;28;20205;-77
2021/11/27 00:32:42;;;;;;;4.23;2.60;;;;;;;-145.69;93.43;70807.47;5115874;28;20197;-77
2021/11/27 00:35:09;;;;;;;4.00;2.43;;;;;;;-145.69;94.69;70815.44;5115780;27;20202;-77
2021/11/27 00:37:36;;;;;;;2.93;1.80;;;;;;;-145.69;91.55;70785.59;5115671;28;20220;-77
2021/11/27 00:40:03;;;;;;;4.50;2.17;;;;;;;-145.69;92.56;70771.66;5115556;28;20204;-76
2021/11/27 00:42:30;;;;;;;3.53;1.80;;;;;;;-145.69;90.44;70733.84;5115784;28;20194;-76
2021/11/27 00:44:58;;;;;;;6.17;1.87;;;;;;;-145.69;87.82;70725.91;5115398;28;20537;-76
2021/11/27 00:47:25;;;;;;;2.27;1.63;;;;;;;-145.69;87.59;70690.09;5115565;28;20192;-78
2021/11/27 00:49:53;;;;;;;4.00;2.07;;;;;;;-145.69;89.05;70723.91;5115433;28;20208;-77
2021/11/27 00:52:20;;;;;;;5.93;1.87;;;;;;;-145.69;89.35;70715.94;5115363;28;20204;-76
2021/11/27 00:54:47;;;;;;;2.20;1.50;;;;;;;-145.69;88.43;70727.88;5115731;28;20640;-76
2021/11/27 00:57:14;;;;;;;3.57;1.90;;;;;;;-145.69;89.48;70729.88;5115722;28;20208;-76
2021/11/27 00:59:41;;;;;;;3.63;2.00;;;;;;;-145.69;88.05;70735.84;5115205;28;20201;-77
2021/11/27 01:02:10;;;;;;;5.53;2.30;;;;;;;-145.69;87.84;70713.97;5115311;28;20201;-77
2021/11/27 01:04:36;;;;;;;2.90;1.70;;;;;;;-145.69;88.58;70727.88;5117532;27;20537;-77
2021/11/27 01:07:06;;;;;;;3.90;2.13;;;;;;;-145.69;89.33;70747.78;5115279;28;20722;-77
2021/11/27 01:09:33;;;;;;;3.60;1.90;;;;;;;-145.69;89.53;70757.72;5115285;28;20201;-76
2021/11/27 01:12:03;;;;;;;3.33;2.20;;;;;;;-145.69;88.74;70753.75;5115263;28;20211;-76
2021/11/27 01:14:32;;;;;;;3.90;2.10;;;;;;;-145.69;88.67;70749.78;5115221;28;20212;-77
2021/11/27 01:17:09;;;;;;;4.13;2.03;;;;;;;-145.69;89.67;70753.75;5115129;28;20319;-76
2021/11/27 01:19:42;;;;;;;3.50;1.90;;;;;;;-145.69;89.97;70769.66;5115129;28;20228;-76
2021/11/27 01:22:13;;;;;;;3.17;1.77;;;;;;;-145.69;89.79;70769.66;5115376;28;20202;-76
2021/11/27 01:24:44;;;;;;;4.27;1.70;;;;;;;-145.69;88.59;70751.75;5114440;28;20201;-76
2021/11/27 01:27:11;;;;;;;3.70;2.10;;;;;;;-145.69;87.33;70739.81;5114806;28;20270;-77
2021/11/27 01:29:38;;;;;;;2.73;1.73;;;;;;;-145.69;88.24;70743.81;5115026;28;20212;-76
2021/11/27 01:32:14;;;;;;;2.57;1.67;;;;;;;-145.69;86.74;70737.84;5115045;28;20265;-76
2021/11/27 01:34:47;;;;;;;3.73;1.77;;;;;;;-145.69;86.21;70737.84;5114858;28;20197;-77
2021/11/27 01:37:16;;;;;;;2.93;1.80;;;;;;;-145.69;84.55;70723.91;5114989;28;20224;-77
2021/11/27 01:39:44;;;;;;;3.40;1.57;;;;;;;-145.69;84.34;70721.91;5114603;28;20623;-77
2021/11/27 01:42:12;;;;;;;2.30;1.57;;;;;;;-145.69;86.26;70713.97;5114516;28;20666;-77
2021/11/27 01:44:43;;;;;;;3.87;1.87;;;;;;;-145.69;84.14;70704.00;5114846;28;20212;-77
2021/11/27 01:47:10;;;;;;;5.07;1.80;;;;;;;-145.69;85.10;70706.00;5114578;28;20686;-77
2021/11/27 01:49:37;;;;;;;2.27;1.20;;;;;;;-145.69;85.56;70708.00;5114459;28;20608;-77
2021/11/27 01:52:11;;;;;;;2.17;1.47;;;;;;;-145.69;85.43;70698.03;5114485;28;20251;-76
2021/11/27 01:54:40;;;;;;;2.60;1.30;;;;;;;-145.69;83.81;70686.09;5114412;28;20292;-77
2021/11/27 01:57:08;;;;;;;3.93;2.30;;;;;;;-145.69;84.12;70692.06;5114503;28;20220;-76
2021/11/27 01:59:38;;;;;;;2.30;1.43;;;;;;;-145.69;85.08;70702.03;5114371;28;20200;-77
2021/11/27 02:02:08;;;;;;;1.87;1.40;;;;;;;-145.69;85.18;70702.03;5114307;28;20288;-76
2021/11/27 02:04:35;;;;;;;3.97;1.53;;;;;;;-145.69;84.46;70686.09;5114420;28;20255;-77
2021/11/27 02:07:06;;;;;;;3.57;1.60;;;;;;;-145.69;85.14;70696.06;5113893;28;20622;-77
2021/11/27 02:09:35;;;;;;;2.20;1.40;;;;;;;-145.69;87.09;70694.06;5113987;28;20712;-77
2021/11/27 02:12:05;;;;;;;1.73;1.37;;;;;;;-145.69;86.17;70684.13;5114201;28;20207;-77
2021/11/27 02:14:32;;;;;;;4.40;1.50;;;;;;;-145.69;85.93;70666.22;5113713;28;20197;-76
2021/11/27 02:16:58;;;;;;;1.97;1.20;;;;;;;-145.69;88.56;70672.19;5113982;28;20246;-77
2021/11/27 02:19:25;;;;;;;1.40;1.30;;;;;;;-145.69;89.33;70670.19;5113794;28;20237;-77
2021/11/27 02:21:53;;;;;;;1.77;1.30;;;;;;;-145.69;89.59;70658.25;5113741;28;20537;-77
2021/11/27 02:24:23;;;;;;;2.13;1.40;;;;;;;-145.69;89.63;70652.28;5113804;28;20556;-77
2021/11/27 02:26:51;;;;;;;2.47;1.33;;;;;;;-145.69;90.12;70658.25;5113835;28;20320;-76
2021/11/27 02:29:21;;;;;;;1.97;1.30;;;;;;;-145.69;91.55;70664.22;5113870;28;20205;-77
2021/11/27 02:31:48;;;;;;;1.50;1.07;;;;;;;-145.69;90.77;70654.28;5113839;28;20209;-76
2021/11/27 02:34:17;;;;;;;1.40;1.13;;;;;;;-145.69;90.30;70654.28;5113734;28;20201;-76
2021/11/27 02:36:46;;;;;;;2.23;1.20;;;;;;;-145.69;92.28;70642.34;5113203;28;20204;-77
2021/11/27 02:39:16;;;;;;;1.30;1.10;;;;;;;-145.69;91.93;70638.34;5113718;28;20656;-77
2021/11/27 02:41:46;;;;;;;1.93;1.20;;;;;;;-145.69;92.22;70654.28;5113969;28;20197;-76
2021/11/27 02:44:18;;;;;;;1.33;1.20;;;;;;;-145.69;93.09;70654.28;5113428;28;20237;-77
2021/11/27 02:46:44;;;;;;;3.53;1.30;;;;;;;-145.69;94.46;70654.28;5113356;28;20233;-78
2021/11/27 02:49:13;;;;;;;1.43;1.17;;;;;;;-145.69;93.96;70640.34;5113810;28;20197;-77
2021/11/27 02:51:40;;;;;;;1.83;1.13;;;;;;;-145.69;93.25;70644.31;5113740;28;20193;-77
2021/11/27 02:54:07;;;;;;;3.67;1.40;;;;;;;-145.69;92.56;70644.31;5113596;28;20208;-77
2021/11/27 02:56:37;;;;;;;1.20;1.10;;;;;;;-145.69;93.33;70648.31;5113794;28;20193;-77
2021/11/27 02:59:12;;;;;;;2.17;1.30;;;;;;;-145.69;92.37;70640.34;5113436;28;20555;-78
2021/11/27 03:01:40;;;;;;;3.43;1.40;;;;;;;-145.69;93.38;70644.31;5113486;28;20247;-79
2021/11/27 03:04:07;;;;;;;1.97;1.20;;;;;;;-145.69;94.90;70648.31;5116173;28;20193;-76
2021/11/27 03:06:37;;;;;;;1.47;1.20;;;;;;;-145.69;94.96;70658.25;5113767;28;20225;-77
2021/11/27 03:09:06;;;;;;;3.33;1.00;;;;;;;-145.69;95.44;70658.25;5113445;28;20254;-76
2021/11/27 03:11:36;;;;;;;2.43;1.23;;;;;;;-145.69;96.11;70674.16;5113609;28;20258;-78
2021/11/27 03:14:06;;;;;;;2.27;1.50;;;;;;;-145.69;96.23;70674.16;5113592;28;20606;-78
2021/11/27 03:16:35;;;;;;;4.90;1.27;;;;;;;-145.69;94.95;70674.16;5113418;28;20589;-78
2021/11/27 03:19:02;;;;;;;2.37;1.57;;;;;;;-145.69;94.40;70668.19;5113242;28;20197;-78
2021/11/27 03:21:28;;;;;;;3.10;1.40;;;;;;;-145.69;93.43;70660.25;5113775;28;20212;-77
2021/11/27 03:23:55;;;;;;;2.40;1.57;;;;;;;-145.69;93.03;70660.25;5113194;28;20201;-78
2021/11/27 03:26:22;;;;;;;1.47;1.20;;;;;;;-145.69;93.24;70658.25;5113173;28;20290;-77
2021/11/27 03:28:50;;;;;;;1.53;1.10;;;;;;;-145.69;93.46;70670.19;5113020;28;20557;-78
2021/11/27 03:31:17;;;;;;;2.83;1.23;;;;;;;-145.69;92.39;70658.25;5113180;28;20201;-78
2021/11/27 03:33:43;;;;;;;2.17;1.20;;;;;;;-145.69;92.81;70650.28;5113542;28;20201;-77
2021/11/27 03:36:10;;;;;;;2.53;1.50;;;;;;;-145.69;92.79;70654.28;5113176;28;20204;-78
2021/11/27 03:38:37;;;;;;;2.20;1.17;;;;;;;-145.69;91.92;70656.25;5113019;28;20205;-78
2021/11/27 03:41:06;;;;;;;1.53;1.10;;;;;;;-145.69;93.40;70648.31;5113239;28;20529;-78
2021/11/27 03:43:34;;;;;;;1.93;1.27;;;;;;;-145.69;91.83;70634.38;5113199;28;20599;-77
2021/11/27 03:46:03;;;;;;;1.90;0.83;;;;;;;-145.69;91.71;70634.38;5113280;28;20289;-78
2021/11/27 03:48:31;;;;;;;1.67;1.00;;;;;;;-145.69;91.83;70624.44;5116317;28;20204;-78
2021/11/27 03:51:04;;;;;;;1.43;1.00;;;;;;;-145.69;93.60;70626.41;5117011;28;20205;-78
2021/11/27 03:53:34;;;;;;;1.80;0.90;;;;;;;-145.69;92.30;70618.47;5116965;28;20209;-78
2021/11/27 03:56:09;;;;;;;1.10;1.00;;;;;;;-145.69;91.79;70614.47;5116967;28;20292;-78
2021/11/27 03:58:36;;;;;;;1.20;0.80;;;;;;;-145.69;93.32;70620.44;5116861;28;20279;-78
2021/11/27 04:01:06;;;;;;;2.00;0.83;;;;;;;-145.69;95.46;70624.44;5117026;28;20205;-78
2021/11/27 04:03:33;;;;;;;1.67;1.10;;;;;;;-145.69;95.74;70634.38;5116910;28;20197;-78
2021/11/27 04:06:03;;;;;;;1.00;0.90;;;;;;;-145.69;95.77;70628.41;5116657;28;20201;-78
2021/11/27 04:08:30;;;;;;;2.13;1.30;;;;;;;-145.69;95.72;70638.34;5116676;28;20201;-78
2021/11/27 04:11:01;;;;;;;1.00;0.87;;;;;;;-145.69;96.24;70632.38;5116753;28;20216;-78
2021/11/27 04:13:28;;;;;;;0.70;0.70;;;;;;;-145.69;96.73;70638.34;5116890;28;20591;-79
2021/11/27 04:15:54;;;;;;;1.10;0.87;;;;;;;-145.69;96.77;70636.38;5116658;28;20204;-78
2021/11/27 04:18:27;;;;;;;1.33;1.00;;;;;;;-145.69;96.63;70636.38;5116485;28;20204;-79
2021/11/27 04:20:54;;;;;;;1.00;0.90;;;;;;;-145.69;95.19;70624.44;5116494;28;20655;-78
2021/11/27 04:23:21;;;;;;;0.80;0.60;;;;;;;-145.69;97.88;70626.41;5116433;28;20197;-79
2021/11/27 04:25:48;;;;;;;1.33;0.60;;;;;;;-145.69;96.83;70630.41;5116295;28;20250;-78
2021/11/27 04:28:16;;;;;;;0.63;0.63;;;;;;;-145.69;96.86;70622.44;5116367;28;20277;-78
2021/11/27 04:30:48;;;;;;;2.57;0.87;;;;;;;-145.69;96.41;70624.44;5116106;28;20208;-78
2021/11/27 04:33:14;;;;;;;0.50;0.50;;;;;;;-145.69;96.79;70622.44;5116268;28;20605;-79
2021/11/27 04:35:42;;;;;;;0.63;0.60;;;;;;;-145.69;96.97;70622.44;5115998;28;20205;-78
2021/11/27 04:38:09;;;;;;;0.57;0.53;;;;;;;-145.69;95.20;70610.50;5116130;28;20208;-77
2021/11/27 04:40:36;;;;;;;0.70;0.70;;;;;;;-145.69;95.80;70612.50;5115997;28;20207;-79
2021/11/27 04:43:04;;;;;;;0.60;0.60;;;;;;;-145.69;95.65;70610.50;5115887;28;20202;-78
2021/11/27 04:45:32;;;;;;;0.77;0.63;;;;;;;-145.69;95.71;70610.50;5115664;28;20204;-79
2021/11/27 04:48:01;;;;;;;0.60;0.60;;;;;;;-145.69;95.71;70606.53;5115741;28;20328;-78
2021/11/27 04:50:29;;;;;;;0.60;0.60;;;;;;;-145.69;96.14;70616.47;5115821;28;20201;-78
2021/11/27 04:52:57;;;;;;;0.80;0.80;;;;;;;-145.69;97.09;70610.50;5115836;28;20197;-78
2021/11/27 04:55:24;;;;;;;0.40;0.40;;;;;;;-145.69;96.64;70618.47;5115534;28;20209;-77
2021/11/27 04:57:51;;;;;;;0.70;0.70;;;;;;;-145.69;96.65;70618.47;5115436;28;20194;-77
2021/11/27 05:00:20;;;;;;;0.70;0.70;;;;;;;-145.69;97.55;70618.47;5117368;27;20194;-78
2021/11/27 05:02:47;;;;;;;1.13;0.53;;;;;;;-145.69;97.90;70620.44;5115567;28;20204;-77
2021/11/27 05:05:14;;;;;;;0.50;0.50;;;;;;;-145.69;97.72;70610.50;5115284;28;20207;-77
2021/11/27 05:07:43;;;;;;;0.50;0.40;;;;;;;-145.69;98.89;70616.47;5115187;28;20703;-78
2021/11/27 05:10:12;;;;;;;0.60;0.60;;;;;;;-145.69;98.49;70626.41;5115283;28;20216;-78
2021/11/27 05:12:39;;;;;;;0.60;0.60;;;;;;;-145.69;99.70;70632.38;5115076;28;20201;-78
2021/11/27 05:15:07;;;;;;;0.70;0.70;;;;;;;-145.69;100.00;70624.44;5115320;28;20201;-78
2021/11/27 05:17:34;;;;;;;0.50;0.50;;;;;;;-145.69;100.00;70636.38;5115211;27;20216;-78
2021/11/27 05:20:00;;;;;;;1.10;0.50;;;;;;;-145.69;100.00;70634.38;5115014;28;20237;-79
2021/11/27 05:22:27;;;;;;;4.10;0.70;;;;;;;-145.69;100.00;70636.38;5114967;28;20709;-79
2021/11/27 05:24:56;;;;;;;0.70;0.70;;;;;;;-145.69;100.00;70644.31;5114816;28;20197;-79
2021/11/27 05:27:24;;;;;;;1.40;0.60;;;;;;;-145.69;100.00;70642.34;5115076;28;20225;-79
2021/11/27 05:29:50;;;;;;;2.00;0.70;;;;;;;-145.69;100.00;70642.34;5115174;28;20202;-78
2021/11/27 05:32:24;;;;;;;0.63;0.60;;;;;;;-145.69;100.00;70656.25;5114853;28;20197;-79
2021/11/27 05:34:52;;;;;;;1.23;0.70;;;;;;;-145.69;100.00;70668.19;5114788;28;20196;-78
2021/11/27 05:37:19;;;;;;;0.73;0.73;;;;;;;-145.69;100.00;70666.22;5114615;28;20697;-78
2021/11/27 05:39:47;;;;;;;0.50;0.50;;;;;;;-145.69;100.00;70674.16;5114605;28;20603;-78
2021/11/27 05:42:15;;;;;;;0.80;0.80;;;;;;;-145.69;100.00;70674.16;5114879;28;20197;-78
2021/11/27 05:44:46;;;;;;;0.83;0.73;;;;;;;-145.69;100.00;70674.16;5114421;28;20651;-78
2021/11/27 05:47:13;;;;;;;1.00;0.70;;;;;;;-145.69;100.00;70668.19;5114488;28;20253;-78
2021/11/27 05:49:40;;;;;;;0.97;0.83;;;;;;;-145.69;100.00;70674.16;5114500;28;20198;-78
2021/11/27 05:52:07;;;;;;;1.10;0.80;;;;;;;-145.69;100.00;70656.25;5114658;28;20690;-78
2021/11/27 05:54:34;;;;;;;1.03;0.80;;;;;;;-145.69;100.00;70660.25;5114693;28;20250;-79
2021/11/27 05:57:01;;;;;;;1.00;0.70;;;;;;;-145.69;100.00;70662.22;5114555;28;20201;-79
2021/11/27 05:59:27;;;;;;;0.90;0.70;;;;;;;-145.69;100.00;70656.25;5114547;28;20193;-78
2021/11/27 06:01:55;;;;;;;1.03;0.93;;;;;;;-145.69;100.00;70662.22;5114486;28;20208;-76
2021/11/27 06:04:22;;;;;;;0.83;0.60;;;;;;;-145.69;100.00;70662.22;5114578;28;20197;-78
2021/11/27 06:06:49;;;;;;;0.70;0.70;;;;;;;-145.69;100.00;70662.22;5114070;28;20206;-78
2021/11/27 06:09:15;;;;;;;0.80;0.80;;;;;;;-145.69;100.00;70664.22;5114515;28;20208;-79
2021/11/27 06:11:42;;;;;;;0.70;0.70;;;;;;;-145.69;100.00;70668.19;5114008;28;20556;-78
2021/11/27 06:14:09;;;;;;;3.03;0.87;;;;;;;-145.69;100.00;70660.25;5114075;28;20288;-78
2021/11/27 06:16:35;;;;;;;0.60;0.60;;;;;;;-145.69;100.00;70664.22;5113939;28;20204;-78
2021/11/27 06:19:03;;;;;;;0.87;0.87;;;;;;;-145.69;100.00;70672.19;5113805;28;20251;-78
2021/11/27 06:21:30;;;;;;;1.07;0.77;;;;;;;-145.69;100.00;70670.19;5114304;28;20241;-79
2021/11/27 06:23:57;;;;;;;1.00;0.80;;;;;;;-145.69;100.00;70664.22;5114071;28;20250;-78
2021/11/27 06:26:24;;;;;;;0.93;0.60;;;;;;;-145.69;100.00;70664.22;5113828;28;20631;-78
2021/11/27 06:28:52;;;;;;;3.43;1.70;;;;;;;-145.69;100.00;70670.19;5113772;28;20296;-78
2021/11/27 06:31:18;;;;;;;0.93;0.83;;;;;;;-145.69;100.00;70666.22;5113703;28;20656;-78
2021/11/27 06:33:45;;;;;;;1.50;0.80;;;;;;;-145.69;100.00;70674.16;5113916;28;20197;-78
2021/11/27 06:36:13;;;;;;;0.67;0.60;;;;;;;-145.69;100.00;70682.13;5113735;28;20201;-78
2021/11/27 06:38:45;;;;;;;1.17;0.87;;;;;;;-145.69;100.00;70690.09;5113707;28;20192;-78
2021/11/27 06:41:12;;;;;;;2.17;1.00;;;;;;;-145.69;100.00;70678.16;5113808;28;20201;-79
2021/11/27 06:43:38;;;;;;;2.00;1.23;;;;;;;-145.69;100.00;70686.09;5113569;28;20212;-79
2021/11/27 06:46:05;;;;;;;2.20;1.20;;;;;;;-145.69;100.00;70694.06;5113422;28;20198;-78
2021/11/27 06:48:31;;;;;;;1.20;0.80;;;;;;;-145.69;100.00;70698.03;5113255;28;20229;-79
2021/11/27 06:50:58;;;;;;;1.33;0.80;;;;;;;-145.69;100.00;70702.03;5113472;28;20205;-78
2021/11/27 06:53:26;;;;;;;2.77;1.30;;;;;;;-145.69;100.00;70704.00;5113622;28;20564;-78
2021/11/27 06:55:55;;;;;;;3.60;1.80;;;;;;;-145.69;100.00;70719.94;5116017;27;20207;-78
2021/11/27 06:58:21;;;;;;;2.70;1.07;;;;;;;-145.69;100.00;70717.94;5113534;28;20205;-79
2021/11/27 07:00:48;;;;;;;1.63;1.00;;;;;;;-145.69;100.00;70715.94;5113153;28;20201;-78
2021/11/27 07:03:14;;;;;;;2.10;1.10;;;;;;;-145.69;100.00;70713.97;5113676;28;20249;-78
2021/11/27 07:05:41;;;;;;;2.57;1.30;;;;;;;-145.69;100.00;70721.91;5113246;28;20202;-78
2021/11/27 07:08:08;;;;;;;6.63;2.70;;;;;;;-145.69;100.00;70719.94;5113121;28;20786;-78
2021/11/27 07:10:36;;;;;;;13.40;4.97;;;;;;;-145.69;100.00;70723.91;5113410;28;20236;-78
2021/11/27 07:13:03;;;;;;;7.33;2.47;;;;;;;-145.69;100.00;70739.81;5113496;28;20193;-78
2021/11/27 07:15:29;;;;;;;13.43;4.43;;;;;;;-145.69;100.00;70745.78;5113184;28;20208;-78
2021/11/27 07:17:56;;;;;;;9.10;2.50;;;;;;;-145.69;100.00;70757.72;5113420;28;20566;-78
2021/11/27 07:20:22;;;;;;;9.30;3.17;;;;;;;-145.69;100.00;70745.78;5112892;28;20278;-78
2021/11/27 07:22:49;;;;;;;3.10;1.83;;;;;;;-145.69;100.00;70729.88;5115519;28;20197;-78
2021/11/27 07:25:15;;;;;;;3.63;1.80;;;;;;;-145.69;100.00;70731.88;5117208;28;20246;-78
2021/11/27 07:27:43;;;;;;;1.87;1.40;;;;;;;-145.69;100.00;70721.91;5117176;28;20225;-79
2021/11/27 07:30:11;;;;;;;1.60;1.23;;;;;;;-145.69;100.00;70729.88;5117236;28;20198;-78
2021/11/27 07:32:37;;;;;;;3.70;2.10;;;;;;;-145.69;100.00;70717.94;5117246;28;20216;-78
2021/11/27 07:35:05;;;;;;;3.10;1.80;;;;;;;-145.69;100.00;70727.88;5117235;28;20194;-78
2021/11/27 07:37:31;;;;;;;4.43;2.20;;;;;;;-145.69;100.00;70723.91;5117169;28;20205;-78
2021/11/27 07:39:58;;;;;;;1.90;1.23;;;;;;;-145.69;100.00;70721.91;5116906;28;20594;-78
2021/11/27 07:42:24;;;;;;;2.03;1.10;;;;;;;-145.69;100.00;70717.94;5116932;28;20201;-79
2021/11/27 07:44:52;;;;;;;2.10;1.47;;;;;;;-145.69;100.00;70719.94;5117062;28;20200;-78
2021/11/27 07:47:19;;;;;;;7.73;1.60;;;;;;;-145.69;100.00;70719.94;5116596;28;20208;-79
2021/11/27 07:49:47;;;;;;;1.50;1.30;;;;;;;-145.69;100.00;70717.94;5116892;28;20197;-78
2021/11/27 07:52:16;;;;;;;1.67;1.07;;;;;;;-145.69;100.00;70715.94;5116737;28;20201;-78
2021/11/27 07:54:45;;;;;;;2.67;1.17;;;;;;;-145.69;100.00;70715.94;5116745;28;20197;-78
2021/11/27 07:57:11;;;;;;;2.43;1.50;;;;;;;-145.69;100.00;70708.00;5116681;28;20205;-77
2021/11/27 07:59:40;;;;;;;2.63;1.20;;;;;;;-145.69;100.00;70706.00;5116665;28;20209;-78
2021/11/27 08:02:08;;;;;;;2.90;1.27;;;;;;;-145.69;100.00;70702.03;5116625;28;20205;-78
2021/11/27 08:04:34;;;;;;;4.87;1.90;;;;;;;-145.69;100.00;70694.06;5116465;27;20193;-77
2021/11/27 08:07:03;;;;;;;2.87;2.03;;;;;;;-145.69;100.00;70686.09;5116506;28;20665;-78
2021/11/27 08:09:29;;;;;;;2.53;1.70;;;;;;;-145.69;100.00;70678.16;5116174;28;20629;-78
2021/11/27 08:11:56;;;;;;;2.47;1.50;;;;;;;-145.69;100.00;70682.13;5116553;28;20274;-78
2021/11/27 08:14:26;;;;;;;3.13;1.40;;;;;;;-145.69;100.00;70702.03;5116481;28;20202;-77
2021/11/27 08:16:56;;;;;;;5.70;1.57;;;;;;;-145.69;100.00;70723.91;5116381;28;20204;-77
2021/11/27 08:19:24;;;;;;;8.97;6.27;;;;;;;-145.69;100.00;70745.78;5116048;28;20233;-77
2021/11/27 08:21:50;;;;;;;10.13;6.43;;;;;;;-145.69;100.00;70755.75;5116204;28;20209;-77
2021/11/27 08:24:17;;;;;;;4.93;3.23;;;;;;;-145.69;100.00;70767.69;5116208;28;20735;-77
2021/11/27 08:26:43;;;;;;;7.97;2.77;;;;;;;-145.69;100.00;70769.66;5116123;28;20656;-77
2021/11/27 08:29:10;;;;;;;4.10;2.23;;;;;;;-145.69;100.00;70777.63;5116231;28;20251;-78
2021/11/27 08:31:36;;;;;;;3.50;1.87;;;;;;;-145.69;100.00;70785.59;5116256;28;20198;-77
2021/11/27 08:34:04;;;;;;;2.80;1.53;;;;;;;-145.69;100.00;70765.69;5114747;28;20288;-77
2021/11/27 08:36:35;;;;;;;3.87;1.70;;;;;;;-145.69;100.00;70745.78;5115828;28;20629;-78
2021/11/27 08:39:02;;;;;;;6.00;2.50;;;;;;;-145.69;100.00;70733.84;5116016;28;20205;-78
2021/11/27 08:41:28;;;;;;;3.73;1.57;;;;;;;-145.69;100.00;70735.84;5115963;28;20197;-77
2021/11/27 08:43:57;;;;;;;2.73;1.20;;;;;;;-145.69;100.00;70715.94;5116035;28;20197;-77
2021/11/27 08:46:24;;;;;;;2.40;1.03;;;;;;;-145.69;100.00;70668.19;5115677;28;20679;-78
2021/11/27 08:48:50;;;;;;;2.70;1.60;;;;;;;-145.69;100.00;70640.34;5115570;28;20229;-78
2021/11/27 08:51:17;;;;;;;4.10;1.67;;;;;;;-145.69;100.00;70626.41;5115489;28;20217;-79
2021/11/27 08:53:49;;;;;;;5.27;1.83;;;;;;;-145.69;98.46;70616.47;5116138;27;20246;-79
2021/11/27 08:56:15;;;;;;;3.27;1.30;;;;;;;-145.69;97.06;70610.50;5134561;27;20193;-80
2021/11/27 08:58:42;;;;;;;3.57;1.10;;;;;;;-145.69;99.75;70618.47;5136013;27;20207;-80
2021/11/27 09:01:13;;;;;;;2.00;1.20;;;;;;;-145.69;97.88;70616.47;5136228;27;20207;-78
2021/11/27 09:03:40;;;;;;;5.40;1.50;;;;;;;-145.69;97.49;70590.63;5136133;27;20224;-79
2021/11/27 09:06:07;;;;;;;4.87;2.10;;;;;;;-145.69;95.19;70570.72;5136078;27;20196;-78
2021/11/27 09:08:36;;;;;;;5.67;1.87;;;;;;;-145.69;94.56;70554.81;5135892;27;20220;-78
2021/11/27 09:11:06;;;;;;;1.43;1.13;;;;;;;-145.69;93.11;70528.94;5135932;27;20290;-80
2021/11/27 09:13:34;;;;;;;4.53;1.30;;;;;;;-145.69;92.83;70530.94;5135876;27;20197;-79
2021/11/27 09:16:01;;;;;;;3.83;1.67;;;;;;;-145.69;91.76;70443.41;5135675;27;20207;-81
2021/11/27 09:18:32;;;;;;;8.30;1.80;;;;;;;-145.69;91.53;70421.50;5135442;27;20197;-80
2021/11/27 09:20:59;;;;;;;6.93;3.87;;;;;;;-145.69;90.77;70415.53;5135521;27;20224;-80
2021/11/27 09:23:25;;;;;;;4.13;2.00;;;;;;;-145.69;92.04;70419.53;5135659;27;20203;-80
2021/11/27 09:25:53;;;;;;;2.17;1.23;;;;;;;-145.69;93.38;70453.34;5135523;27;20253;-78
2021/11/27 09:28:24;;;;;;;3.13;1.80;;;;;;;-145.69;95.45;70479.19;5135432;27;20224;-78
2021/11/27 09:30:52;;;;;;;1.83;1.27;;;;;;;-145.69;97.75;70493.13;5135275;27;20197;-78
2021/11/27 09:33:19;;;;;;;1.40;1.10;;;;;;;-145.69;97.92;70499.09;5135582;27;20193;-76
2021/11/27 09:35:55;;;;;;;3.03;1.60;;;;;;;-145.69;97.94;70515.00;5135320;27;20196;-77
2021/11/27 09:38:22;;;;;;;4.17;1.80;;;;;;;-145.69;99.56;70505.06;5135334;27;20203;-77
2021/11/27 09:40:52;;;;;;;2.63;1.30;;;;;;;-145.69;98.58;70513.03;5135135;27;20205;-78
2021/11/27 09:43:20;;;;;;;4.13;1.20;;;;;;;-145.69;96.88;70511.03;5135334;27;20197;-78
2021/11/27 09:45:48;;;;;;;2.73;1.27;;;;;;;-145.69;100.00;70519.00;5134928;27;20203;-78
2021/11/27 09:48:16;;;;;;;4.57;1.57;;;;;;;-145.69;96.30;70481.19;5135355;27;20277;-79
2021/11/27 09:50:43;;;;;;;2.30;1.33;;;;;;;-145.69;93.24;70449.38;5135520;27;20197;-78
2021/11/27 09:53:10;;;;;;;4.07;1.40;;;;;;;-145.69;93.92;70399.63;5135493;27;20196;-78
2021/11/27 09:55:36;;;;;;;1.60;0.97;;;;;;;-145.69;91.38;70407.59;5135373;27;20209;-78
2021/11/27 09:58:02;;;;;;;2.10;1.00;;;;;;;-145.69;92.33;70485.16;5135262;27;20246;-78
2021/11/27 10:00:29;;;;;;;1.50;0.93;;;;;;;-145.69;93.73;70435.44;5135113;27;20282;-78
2021/11/27 10:02:58;;;;;;;1.07;0.83;;;;;;;-145.69;91.69;70435.44;5134961;27;20650;-77
2021/11/27 10:05:25;;;;;;;1.93;1.20;;;;;;;-145.69;90.08;70435.44;5135160;27;20200;-77
2021/11/27 10:07:52;;;;;;;2.03;0.70;;;;;;;-145.69;92.67;70463.28;5134978;27;20205;-78
2021/11/27 10:10:20;;;;;;;2.77;1.50;;;;;;;-145.69;93.56;70513.03;5134756;27;20220;-78
2021/11/27 10:12:47;;;;;;;1.43;1.03;;;;;;;-145.69;94.91;70548.84;5135068;27;20201;-77
2021/11/27 10:15:14;;;;;;;0.80;0.80;;;;;;;-145.69;96.93;70546.84;5134801;27;20200;-77
2021/11/27 10:17:41;;;;;;;2.27;0.97;;;;;;;-145.69;96.00;70519.00;5134794;27;20197;-78
2021/11/27 10:20:10;;;;;;;1.37;1.07;;;;;;;-145.69;93.63;70524.97;5134849;27;20228;-78
2021/11/27 10:22:47;;;;;;;1.03;0.67;;;;;;;-145.69;94.18;70554.81;5134456;27;20223;-78
2021/11/27 10:25:27;;;;;;;0.80;0.80;;;;;;;-145.69;95.92;70566.75;5134668;27;20245;-78
2021/11/27 10:27:54;;;;;;;1.47;1.07;;;;;;;-145.69;96.51;70570.72;5134588;27;20212;-77
2021/11/27 10:30:23;;;;;;;1.67;1.07;;;;;;;-145.69;99.15;70578.69;5134394;27;20235;-77
2021/11/27 10:32:50;;;;;;;1.00;0.80;;;;;;;-145.69;99.66;70608.53;5134314;27;20594;-77
2021/11/27 10:35:20;;;;;;;19.40;1.27;;;;;;;-145.69;100.00;70662.22;5134327;27;20235;-76
2021/11/27 10:37:48;;;;;;;0.77;0.67;;;;;;;-145.69;100.00;70704.00;5134486;27;20200;-77
2021/11/27 10:40:17;;;;;;;1.07;0.83;;;;;;;-145.69;100.00;70781.59;5134605;27;20204;-76
2021/11/27 10:42:46;;;;;;;0.80;0.80;;;;;;;-145.69;100.00;70829.34;5134237;27;20205;-77
2021/11/27 10:45:18;;;;;;;0.87;0.80;;;;;;;-145.69;100.00;70871.13;5134375;27;20197;-76
2021/11/27 10:47:45;;;;;;;2.23;1.00;;;;;;;-145.69;100.00;70893.03;5134197;27;20201;-77
2021/11/27 10:50:18;;;;;;;3.23;1.37;;;;;;;-145.69;100.00;70918.88;5134027;27;20228;-78
2021/11/27 10:52:48;;;;;;;2.97;2.10;;;;;;;-145.69;100.00;70920.88;5134307;27;20197;-78
2021/11/27 10:55:17;;;;;;;2.63;1.30;;;;;;;-145.69;100.00;70938.78;5134283;27;20196;-79
2021/11/27 10:57:44;;;;;;;3.33;2.00;;;;;;;-145.69;100.00;70944.75;5127712;27;20194;-79
2021/11/27 11:00:26;;;;;;;2.27;2.00;;;;;;;-145.69;100.00;70940.78;5113832;28;20254;-84
2021/11/27 11:02:53;;;;;;;2.50;1.40;;;;;;;-145.69;100.00;70944.75;5113763;28;20201;-80
2021/11/27 11:05:20;;;;;;;2.03;1.37;;;;;;;-145.69;100.00;70916.91;5113656;28;20205;-78
2021/11/27 11:07:54;;;;;;;4.67;2.00;;;;;;;-145.69;100.00;70916.91;5113686;28;20202;-78
2021/11/27 11:10:25;;;;;;;1.33;0.97;;;;;;;-145.69;100.00;70910.94;5113321;28;20228;-79
2021/11/27 11:12:56;;;;;;;2.50;1.30;;;;;;;-145.69;100.00;70895.00;5113528;28;20235;-76
2021/11/27 11:15:32;;;;;;;1.70;1.17;;;;;;;-145.69;100.00;70881.09;5113336;28;20731;-78
2021/11/27 11:18:15;;;;;;;2.93;1.90;;;;;;;-145.69;100.00;70871.13;5113633;28;20257;-78